Time;durP1;ratioP1;P1;durP2;ratioP2;P2;SDS_P1;SDS_P2;PMS_P1;PMS_P2;Temp;Humidity;BMP_temperature;BMP_pressure;BME280_temperature;BME280_humidity;BME280_pressure;Samples;Min_cycle;Max_cycle;Signal;HPM_P1;HPM_P2
2022/01/31 00:03:58;;;;;;;44.30;6.00;;;;;;;3.32;100.00;101342.31;10039000;28;20562;-66
2022/01/31 00:08:55;;;;;;;31.50;5.38;;;;;;;3.40;100.00;101317.53;10055893;28;20510;-66
2022/01/31 00:14:00;;;;;;;43.08;6.20;;;;;;;3.31;100.00;101313.66;10038979;29;20040;-66
2022/01/31 00:18:57;;;;;;;65.38;8.40;;;;;;;3.34;100.00;101307.72;10033046;28;20557;-66
2022/01/31 00:23:54;;;;;;;39.67;6.70;;;;;;;3.32;100.00;101288.25;10038128;28;20071;-66
2022/01/31 00:28:50;;;;;;;36.60;5.47;;;;;;;3.43;100.00;101252.13;10047651;28;20075;-66
2022/01/31 00:33:47;;;;;;;41.85;6.90;;;;;;;3.43;100.00;101235.91;10032404;29;20083;-66
2022/01/31 00:38:43;;;;;;;39.92;6.03;;;;;;;3.41;100.00;101221.81;10033950;28;20130;-67
2022/01/31 00:43:40;;;;;;;31.88;4.75;;;;;;;3.41;100.00;101208.31;10037474;29;20036;-66
2022/01/31 00:48:43;;;;;;;39.17;5.20;;;;;;;3.33;100.00;101173.66;10047221;28;20047;-67
2022/01/31 00:53:40;;;;;;;34.35;5.40;;;;;;;3.31;100.00;101162.28;10035612;29;20515;-67
2022/01/31 00:58:36;;;;;;;40.80;6.22;;;;;;;3.34;100.00;101140.13;10036837;28;20062;-65
2022/01/31 01:03:33;;;;;;;44.13;7.28;;;;;;;3.29;100.00;101132.00;10037268;29;20076;-65
2022/01/31 01:08:29;;;;;;;41.95;6.25;;;;;;;3.28;100.00;101108.75;10062398;29;20078;-66
2022/01/31 01:13:26;;;;;;;33.75;5.40;;;;;;;3.25;100.00;101090.34;10033084;28;20805;-65
2022/01/31 01:18:22;;;;;;;30.85;5.65;;;;;;;3.30;100.00;101052.56;10061704;28;20055;-68
2022/01/31 01:23:19;;;;;;;34.08;4.35;;;;;;;3.30;100.00;101055.25;10019427;28;20103;-68
2022/01/31 01:28:16;;;;;;;40.00;5.72;;;;;;;3.33;100.00;101035.81;10045781;28;20608;-66
2022/01/31 01:33:18;;;;;;;41.08;5.60;;;;;;;3.35;100.00;100993.13;10035061;28;20672;-68
2022/01/31 01:38:17;;;;;;;30.02;5.28;;;;;;;3.28;100.00;100970.94;10049809;28;20075;-68
2022/01/31 01:43:15;;;;;;;45.58;6.50;;;;;;;3.24;100.00;100961.72;10048055;28;20147;-68
2022/01/31 01:48:11;;;;;;;41.80;6.03;;;;;;;3.32;100.00;100943.13;10031245;28;20052;-67
2022/01/31 01:53:09;;;;;;;30.75;4.95;;;;;;;3.27;100.00;100934.16;10035136;29;20127;-68
2022/01/31 01:58:13;;;;;;;32.85;5.10;;;;;;;3.27;100.00;100929.59;10041771;28;20114;-68
2022/01/31 02:08:19;;;;;;;27.38;5.10;;;;;;;3.36;100.00;100903.69;10533591;23;20065;-68
2022/01/31 02:13:17;;;;;;;33.80;4.10;;;;;;;3.36;100.00;100875.81;10097597;28;20042;-68
2022/01/31 02:18:15;;;;;;;40.38;7.18;;;;;;;3.38;100.00;100865.56;10152761;28;20157;-67
2022/01/31 02:23:13;;;;;;;44.85;6.88;;;;;;;3.34;100.00;100846.38;10149628;28;20068;-66
2022/01/31 02:28:10;;;;;;;27.77;5.25;;;;;;;3.31;100.00;100837.97;10158902;28;20054;-66
2022/01/31 02:33:06;;;;;;;37.97;6.00;;;;;;;3.27;100.00;100820.66;10128157;28;20050;-67
2022/01/31 02:38:04;;;;;;;35.28;5.78;;;;;;;3.28;100.00;100812.28;10162237;28;20137;-67
2022/01/31 02:43:00;;;;;;;32.33;5.55;;;;;;;3.36;100.00;100797.44;10161964;28;20120;-67
2022/01/31 02:47:59;;;;;;;34.00;4.45;;;;;;;3.36;100.00;100794.72;10191724;28;20069;-68
2022/01/31 02:53:13;;;;;;;29.33;5.95;;;;;;;3.42;100.00;100790.97;10179081;28;20465;-66
2022/01/31 02:58:10;;;;;;;35.03;5.45;;;;;;;3.39;100.00;100780.69;10180647;28;20076;-66
2022/01/31 03:03:07;;;;;;;39.10;5.90;;;;;;;3.36;100.00;100762.28;10169698;28;20588;-67
2022/01/31 03:08:04;;;;;;;38.50;6.22;;;;;;;3.31;100.00;100752.28;10159658;28;20046;-68
2022/01/31 03:13:01;;;;;;;30.27;5.15;;;;;;;3.27;100.00;100726.06;10152485;28;20518;-66
2022/01/31 03:17:59;;;;;;;28.30;4.68;;;;;;;3.29;100.00;100702.28;10157365;28;20050;-66
2022/01/31 03:22:56;;;;;;;31.08;5.60;;;;;;;3.29;100.00;100672.56;10160351;28;20145;-67
2022/01/31 03:27:52;;;;;;;35.10;4.88;;;;;;;3.31;100.00;100646.91;10170362;28;20121;-67
2022/01/31 03:32:49;;;;;;;26.90;5.18;;;;;;;3.27;100.00;100635.03;10160840;28;20122;-66
2022/01/31 03:37:46;;;;;;;37.30;6.85;;;;;;;3.37;100.00;100609.88;10160470;28;20053;-68
2022/01/31 03:42:42;;;;;;;33.25;6.80;;;;;;;3.40;100.00;100587.69;10159406;28;20042;-67
2022/01/31 03:47:45;;;;;;;31.67;4.15;;;;;;;3.41;100.00;100564.97;10156998;28;20400;-67
2022/01/31 03:52:42;;;;;;;27.88;3.83;;;;;;;3.42;100.00;100542.28;10148621;28;20389;-67
2022/01/31 03:57:39;;;;;;;35.03;5.70;;;;;;;3.40;100.00;100539.06;10156008;28;20534;-67
2022/01/31 04:02:35;;;;;;;23.00;3.97;;;;;;;3.34;100.00;100513.13;10157466;28;20070;-67
2022/01/31 04:07:33;;;;;;;18.25;4.38;;;;;;;3.31;100.00;100497.47;10173362;28;20100;-68
2022/01/31 04:12:30;;;;;;;22.08;4.85;;;;;;;3.16;100.00;100479.41;10159722;28;20046;-67
2022/01/31 04:17:26;;;;;;;24.58;4.60;;;;;;;3.10;100.00;100456.97;10157373;28;20117;-68
2022/01/31 04:22:25;;;;;;;25.73;3.88;;;;;;;3.29;100.00;100451.78;10186639;28;20039;-67
2022/01/31 04:27:27;;;;;;;27.02;3.65;;;;;;;3.25;100.00;100449.91;10177004;28;20077;-66
2022/01/31 04:32:23;;;;;;;28.58;3.80;;;;;;;3.21;100.00;100438.06;10191767;28;20088;-67
2022/01/31 04:37:20;;;;;;;25.67;4.30;;;;;;;3.18;100.00;100412.41;10156363;28;20539;-67
2022/01/31 04:42:17;;;;;;;28.88;5.95;;;;;;;3.05;100.00;100396.78;10158087;28;20480;-67
2022/01/31 04:47:13;;;;;;;22.75;3.70;;;;;;;3.24;100.00;100367.25;10165846;28;20054;-68
2022/01/31 04:52:10;;;;;;;26.92;4.78;;;;;;;3.06;100.00;100352.44;10156553;28;20046;-67
2022/01/31 04:57:06;;;;;;;26.52;4.38;;;;;;;3.12;100.00;100338.66;10155637;28;20109;-68
2022/01/31 05:02:03;;;;;;;26.25;4.97;;;;;;;3.14;100.00;100331.09;10161310;28;20088;-66
2022/01/31 05:07:00;;;;;;;34.05;4.85;;;;;;;3.15;100.00;100324.56;10163372;28;20520;-66
2022/01/31 05:11:56;;;;;;;31.13;4.38;;;;;;;3.21;100.00;100319.19;10162206;28;20065;-67
2022/01/31 05:16:53;;;;;;;29.65;5.50;;;;;;;3.19;100.00;100310.53;10180439;28;20104;-66
2022/01/31 05:21:50;;;;;;;30.40;4.28;;;;;;;3.13;100.00;100286.25;10162507;28;20054;-66
2022/01/31 05:26:51;;;;;;;24.98;4.05;;;;;;;3.00;100.00;100281.44;10155648;28;20070;-67
2022/01/31 05:31:53;;;;;;;28.85;4.55;;;;;;;3.00;100.00;100273.34;10158730;28;20565;-67
2022/01/31 05:36:54;;;;;;;26.80;4.70;;;;;;;2.96;100.00;100261.47;10184600;28;20516;-67
2022/01/31 05:41:52;;;;;;;17.98;3.35;;;;;;;3.01;100.00;100253.34;10164391;28;20074;-66
2022/01/31 05:46:49;;;;;;;34.58;4.95;;;;;;;3.00;100.00;100243.63;10159075;28;20512;-67
2022/01/31 05:51:53;;;;;;;25.95;5.25;;;;;;;3.01;100.00;100234.44;10154966;28;20052;-67
2022/01/31 05:56:50;;;;;;;32.42;4.80;;;;;;;3.05;100.00;100230.09;10167049;28;20038;-66
2022/01/31 06:01:47;;;;;;;29.23;5.40;;;;;;;3.02;100.00;100230.66;10167121;28;20045;-68
2022/01/31 06:06:43;;;;;;;24.40;4.93;;;;;;;2.99;100.00;100220.41;10178568;28;20046;-67
2022/01/31 06:11:49;;;;;;;35.38;5.22;;;;;;;2.93;100.00;100205.34;10168010;28;20054;-67
2022/01/31 06:16:45;;;;;;;29.52;5.00;;;;;;;2.87;100.00;100211.84;10172512;28;20476;-65
2022/01/31 06:21:41;;;;;;;25.85;4.78;;;;;;;2.84;100.00;100191.59;10183214;28;20462;-66
2022/01/31 06:26:38;;;;;;;36.58;5.70;;;;;;;2.80;100.00;100195.16;10171005;28;20136;-67
2022/01/31 06:31:35;;;;;;;32.42;6.05;;;;;;;2.70;100.00;100190.63;10152801;28;20050;-66
2022/01/31 06:36:32;;;;;;;37.92;7.00;;;;;;;2.76;100.00;100183.28;10169932;28;20085;-66
2022/01/31 06:41:28;;;;;;;32.72;6.13;;;;;;;2.73;100.00;100182.75;10173351;28;20576;-67
2022/01/31 06:46:25;;;;;;;36.92;5.95;;;;;;;2.62;100.00;100178.50;10170528;28;20073;-67
2022/01/31 06:51:22;;;;;;;32.17;4.57;;;;;;;2.65;100.00;100177.94;10174528;28;20050;-65
2022/01/31 06:56:29;;;;;;;22.60;4.95;;;;;;;2.64;100.00;100170.13;10167101;28;20053;-66
2022/01/31 07:01:26;;;;;;;29.30;5.97;;;;;;;2.68;100.00;100166.59;10130985;28;20565;-66
2022/01/31 07:06:26;;;;;;;34.58;5.13;;;;;;;2.58;100.00;100150.47;10171683;28;20140;-67
2022/01/31 07:11:26;;;;;;;30.08;4.68;;;;;;;2.65;100.00;100150.16;10177877;28;20512;-66
2022/01/31 07:16:22;;;;;;;31.58;6.07;;;;;;;2.71;100.00;100147.13;10154697;28;20066;-67
2022/01/31 07:21:19;;;;;;;30.92;4.88;;;;;;;2.66;100.00;100151.75;10161073;28;20082;-67
2022/01/31 07:26:17;;;;;;;25.30;5.57;;;;;;;2.64;100.00;100149.31;10169982;28;20046;-66
2022/01/31 07:31:15;;;;;;;35.70;6.93;;;;;;;2.68;100.00;100133.41;10160487;28;20046;-67
2022/01/31 07:36:12;;;;;;;40.80;6.72;;;;;;;2.58;100.00;100136.97;10165957;28;20104;-66
2022/01/31 07:41:12;;;;;;;28.90;6.03;;;;;;;2.36;100.00;100131.13;10198156;28;20570;-67
2022/01/31 07:46:13;;;;;;;33.03;5.78;;;;;;;2.39;100.00;100119.78;10173555;28;20046;-67
2022/01/31 07:51:10;;;;;;;25.80;6.03;;;;;;;2.45;100.00;100121.38;10177856;28;20045;-67
2022/01/31 07:56:08;;;;;;;32.25;5.45;;;;;;;2.48;100.00;100129.75;10163778;28;20050;-68
2022/01/31 08:01:05;;;;;;;29.88;6.43;;;;;;;2.48;100.00;100120.81;10167611;28;20097;-67
2022/01/31 08:06:03;;;;;;;40.55;6.40;;;;;;;2.27;100.00;100118.22;10167701;28;20077;-67
2022/01/31 08:11:00;;;;;;;34.17;8.32;;;;;;;2.24;100.00;100117.97;10194830;28;20074;-67
2022/01/31 08:16:09;;;;;;;24.13;5.13;;;;;;;2.35;100.00;100114.16;10161943;28;20117;-67
2022/01/31 08:21:07;;;;;;;31.92;6.40;;;;;;;2.44;100.00;100125.19;10158771;28;20046;-67
2022/01/31 08:26:07;;;;;;;28.02;5.60;;;;;;;2.42;100.00;100124.63;10169779;28;20076;-66
2022/01/31 08:31:13;;;;;;;30.20;7.63;;;;;;;2.44;100.00;100127.88;10159102;28;20072;-66
2022/01/31 08:36:09;;;;;;;24.70;5.15;;;;;;;2.55;100.00;100123.22;10164022;28;20683;-66
2022/01/31 08:41:07;;;;;;;23.15;6.50;;;;;;;2.32;100.00;100114.69;10158455;28;20558;-67
2022/01/31 08:46:05;;;;;;;41.50;7.18;;;;;;;2.18;100.00;100114.50;10184884;28;20052;-66
2022/01/31 08:51:04;;;;;;;22.60;5.38;;;;;;;2.65;100.00;100118.56;10137635;28;20065;-67
2022/01/31 08:56:04;;;;;;;33.10;6.97;;;;;;;2.63;100.00;100117.22;10157050;28;20057;-67
2022/01/31 09:01:03;;;;;;;23.58;5.10;;;;;;;2.80;100.00;100120.34;10173651;28;20096;-67
2022/01/31 09:06:02;;;;;;;27.85;6.35;;;;;;;2.80;100.00;100122.25;10170814;28;20442;-67
2022/01/31 09:10:59;;;;;;;25.38;5.32;;;;;;;2.86;100.00;100130.03;10178225;28;20038;-68
2022/01/31 09:15:56;;;;;;;21.58;5.40;;;;;;;2.92;100.00;100133.50;10159538;28;20085;-66
2022/01/31 09:20:53;;;;;;;22.63;6.18;;;;;;;3.07;100.00;100141.50;10178442;28;20535;-67
2022/01/31 09:25:50;;;;;;;24.75;6.40;;;;;;;3.18;100.00;100126.03;10156508;28;20121;-67
2022/01/31 09:30:47;;;;;;;23.80;6.45;;;;;;;3.13;100.00;100124.16;10152421;28;20042;-67
2022/01/31 09:35:44;;;;;;;26.25;6.25;;;;;;;2.92;100.00;100128.94;10150325;28;20078;-68
2022/01/31 09:40:44;;;;;;;23.38;6.18;;;;;;;3.00;100.00;100134.81;10154193;28;20388;-67
2022/01/31 09:50:42;;;;;;;24.20;6.60;;;;;;;3.05;100.00;100138.28;10151157;28;20050;-73
2022/01/31 09:55:38;;;;;;;24.08;7.32;;;;;;;3.13;100.00;100151.19;10150179;28;20105;-72
2022/01/31 10:00:35;;;;;;;25.25;6.25;;;;;;;3.23;100.00;100154.91;10162805;28;20093;-72
2022/01/31 10:05:31;;;;;;;25.92;5.78;;;;;;;3.33;100.00;100161.00;10180704;28;20894;-72
2022/01/31 10:10:30;;;;;;;26.17;5.93;;;;;;;3.29;100.00;100153.75;10154781;28;20065;-72
2022/01/31 10:20:45;;;;;;;18.08;7.43;;;;;;;3.36;100.00;100148.81;10149034;28;20054;-72
2022/01/31 10:25:43;;;;;;;29.92;7.30;;;;;;;3.54;100.00;100158.94;10150031;28;20043;-73
2022/01/31 10:30:44;;;;;;;30.25;7.32;;;;;;;3.60;100.00;100165.13;10139317;28;20066;-72
2022/01/31 10:35:43;;;;;;;17.85;6.38;;;;;;;3.58;100.00;100164.59;10143607;28;20761;-72
2022/01/31 10:56:43;;;;;;;16.40;5.63;;;;;;;3.75;100.00;100205.50;10149175;28;20050;-69
2022/01/31 11:01:42;;;;;;;11.38;4.53;;;;;;;3.75;100.00;100200.09;10157336;28;20081;-70
2022/01/31 11:07:00;;;;;;;12.48;4.47;;;;;;;3.69;100.00;100205.84;10152895;28;20678;-70
2022/01/31 11:11:58;;;;;;;15.48;5.78;;;;;;;3.75;100.00;100210.13;10152233;28;20065;-71
2022/01/31 11:16:55;;;;;;;18.25;6.25;;;;;;;3.68;100.00;100236.69;10148619;28;20093;-71
2022/01/31 11:21:52;;;;;;;17.73;6.57;;;;;;;3.77;100.00;100245.81;10157267;28;20052;-73
2022/01/31 11:27:01;;;;;;;13.30;5.85;;;;;;;3.75;100.00;100239.88;10144987;28;20073;-70
2022/01/31 11:32:00;;;;;;;14.30;5.60;;;;;;;3.84;100.00;100240.88;10150032;28;20039;-71
2022/01/31 11:36:58;;;;;;;19.15;6.28;;;;;;;3.77;100.00;100243.09;10146829;28;20125;-75
2022/01/31 11:42:00;;;;;;;13.52;4.47;;;;;;;3.98;100.00;100247.22;10158210;28;20097;-75
2022/01/31 11:47:01;;;;;;;12.80;4.85;;;;;;;4.07;100.00;100254.72;10154053;28;20500;-75
2022/01/31 11:52:04;;;;;;;13.95;5.35;;;;;;;4.12;100.00;100273.63;10147499;28;20046;-75
2022/01/31 11:57:01;;;;;;;10.82;4.70;;;;;;;4.05;100.00;100289.38;10150647;28;20042;-74
2022/01/31 12:01:58;;;;;;;10.10;4.55;;;;;;;4.15;100.00;100305.50;10156646;28;20070;-75
2022/01/31 12:06:56;;;;;;;10.10;4.70;;;;;;;4.22;100.00;100295.97;10151266;28;20050;-73
2022/01/31 12:11:59;;;;;;;12.27;4.70;;;;;;;4.31;100.00;100288.03;10147742;28;20141;-74
2022/01/31 12:17:19;;;;;;;11.52;4.80;;;;;;;4.29;100.00;100284.78;10141489;28;20058;-74
2022/01/31 12:22:38;;;;;;;9.75;4.78;;;;;;;4.30;100.00;100302.66;10150647;28;20157;-73
2022/01/31 12:27:35;;;;;;;9.82;4.28;;;;;;;4.39;100.00;100300.94;10146267;28;20046;-73
2022/01/31 12:32:35;;;;;;;8.43;4.43;;;;;;;4.31;100.00;100298.84;10145143;28;20508;-73
2022/01/31 12:37:40;;;;;;;15.80;5.30;;;;;;;4.47;100.00;100331.19;10142666;28;20093;-73
2022/01/31 12:48:23;;;;;;;10.20;5.10;;;;;;;4.34;100.00;100357.84;10149269;28;20137;-73
2022/01/31 12:53:22;;;;;;;13.18;5.47;;;;;;;4.39;100.00;100368.63;10129541;28;20054;-73
2022/01/31 12:58:19;;;;;;;14.18;5.85;;;;;;;4.55;100.00;100358.47;10135410;28;20103;-74
2022/01/31 13:03:18;;;;;;;15.20;6.07;;;;;;;4.67;100.00;100371.59;10138759;28;20047;-74
2022/01/31 13:08:23;;;;;;;13.80;5.85;;;;;;;4.69;100.00;100380.25;10149777;28;20054;-74
2022/01/31 13:13:36;;;;;;;12.65;4.97;;;;;;;4.61;100.00;100391.69;10146976;28;20050;-74
2022/01/31 13:18:33;;;;;;;11.37;5.07;;;;;;;4.71;100.00;100399.72;10146776;28;20058;-75
2022/01/31 13:23:32;;;;;;;14.10;5.05;;;;;;;4.68;100.00;100405.69;10157134;28;20070;-75
2022/01/31 13:28:28;;;;;;;16.02;6.65;;;;;;;4.69;100.00;100418.16;10145884;28;20050;-74
2022/01/31 13:33:25;;;;;;;17.17;5.45;;;;;;;4.68;100.00;100421.16;10142844;28;20109;-74
2022/01/31 13:38:25;;;;;;;14.10;6.18;;;;;;;4.74;100.00;100431.66;10148995;28;20086;-74
2022/01/31 13:43:27;;;;;;;13.20;5.82;;;;;;;4.40;100.00;100432.47;10155172;28;20046;-74
2022/01/31 13:49:09;;;;;;;;;;;;;;;4.45;100.00;100441.66;10143594;28;20055;-73
2022/01/31 13:54:08;;;;;;;19.25;7.43;;;;;;;4.47;100.00;100450.31;10133711;28;20379;-73
2022/01/31 13:59:09;;;;;;;16.92;7.05;;;;;;;4.48;100.00;100465.44;10146596;28;20559;-73
2022/01/31 14:04:05;;;;;;;17.63;7.68;;;;;;;4.46;100.00;100467.66;10147934;28;20057;-73
2022/01/31 14:09:10;;;;;;;17.05;7.25;;;;;;;4.49;100.00;100483.31;10145616;28;20488;-74
2022/01/31 14:14:10;;;;;;;20.48;7.10;;;;;;;4.24;100.00;100487.81;10137626;28;20085;-73
2022/01/31 14:19:10;;;;;;;16.48;7.15;;;;;;;4.28;100.00;100504.31;10140387;28;20056;-73
2022/01/31 14:24:08;;;;;;;16.02;6.97;;;;;;;4.27;100.00;100524.34;10144077;28;20070;-74
2022/01/31 14:29:24;;;;;;;18.52;7.53;;;;;;;4.42;100.00;100532.38;10141066;28;20200;-77
2022/01/31 14:34:23;;;;;;;16.27;7.70;;;;;;;4.35;100.00;100543.50;10147445;28;20089;-73
2022/01/31 14:49:36;;;;;;;26.42;8.43;;;;;;;4.37;100.00;100576.53;10156555;28;21189;-73
2022/01/31 14:54:34;;;;;;;17.38;7.78;;;;;;;4.40;100.00;100583.28;10159736;28;20484;-72
2022/01/31 14:59:31;;;;;;;19.13;7.47;;;;;;;4.41;100.00;100596.53;10152728;28;20500;-72
2022/01/31 15:04:28;;;;;;;23.23;8.75;;;;;;;4.29;100.00;100609.59;10151237;28;20081;-71
2022/01/31 15:09:25;;;;;;;19.80;8.23;;;;;;;4.38;100.00;100613.31;10148435;28;20046;-74
2022/01/31 15:14:22;;;;;;;25.95;8.43;;;;;;;4.15;100.00;100625.59;10150202;28;20109;-74
2022/01/31 15:19:20;;;;;;;20.95;9.38;;;;;;;4.21;100.00;100651.56;10145469;28;20058;-74
2022/01/31 15:24:20;;;;;;;27.45;11.40;;;;;;;4.18;100.00;100667.56;10150244;28;20051;-74
2022/01/31 15:29:16;;;;;;;27.00;10.52;;;;;;;4.12;100.00;100674.06;10146457;28;20047;-73
2022/01/31 15:34:18;;;;;;;25.92;11.48;;;;;;;3.93;100.00;100682.78;10139013;28;20042;-73
2022/01/31 15:39:18;;;;;;;27.50;12.38;;;;;;;4.11;100.00;100694.91;10142540;28;20042;-73
2022/01/31 15:44:24;;;;;;;26.23;10.25;;;;;;;3.99;100.00;100700.63;10143263;28;20121;-74
2022/01/31 15:49:21;;;;;;;32.80;12.32;;;;;;;3.80;100.00;100726.63;10152360;28;20072;-73
2022/01/31 15:54:17;;;;;;;32.53;13.15;;;;;;;3.77;100.00;100727.16;10153493;28;20039;-73
2022/01/31 15:59:14;;;;;;;25.73;10.55;;;;;;;3.83;100.00;100742.31;10158490;28;20078;-74
2022/01/31 16:04:10;;;;;;;29.90;10.63;;;;;;;3.79;100.00;100754.75;10166216;28;20039;-74
2022/01/31 16:09:07;;;;;;;27.52;11.10;;;;;;;3.50;100.00;100776.91;10150432;28;20053;-73
2022/01/31 16:14:10;;;;;;;24.88;10.35;;;;;;;3.51;100.00;100788.56;10148551;28;20039;-73
2022/01/31 16:19:08;;;;;;;28.15;9.70;;;;;;;3.52;100.00;100809.88;10155025;28;20098;-73
2022/01/31 16:24:05;;;;;;;28.20;10.65;;;;;;;3.56;100.00;100799.38;10159395;28;20078;-73
2022/01/31 16:29:02;;;;;;;24.08;9.13;;;;;;;3.44;100.00;100802.31;10150233;28;20468;-73
2022/01/31 16:34:01;;;;;;;22.92;9.02;;;;;;;3.49;100.00;100813.13;10146110;28;20093;-74
2022/01/31 16:38:58;;;;;;;26.48;9.23;;;;;;;3.46;100.00;100812.84;10148695;28;20096;-73
2022/01/31 16:43:55;;;;;;;28.00;9.52;;;;;;;3.64;100.00;100835.88;10145227;28;20481;-73
2022/01/31 16:48:52;;;;;;;28.17;8.57;;;;;;;3.62;100.00;100838.03;10146287;28;20073;-73
2022/01/31 16:53:48;;;;;;;22.05;8.50;;;;;;;3.57;100.00;100828.84;10154880;28;20471;-73
2022/01/31 16:58:45;;;;;;;23.63;7.88;;;;;;;3.62;100.00;100838.03;10153240;28;20050;-73
2022/01/31 17:03:41;;;;;;;27.02;9.45;;;;;;;3.53;100.00;100852.09;10152490;28;20085;-73
2022/01/31 17:08:40;;;;;;;29.13;10.10;;;;;;;3.59;100.00;100861.00;10143533;28;20477;-70
2022/01/31 17:13:38;;;;;;;23.20;7.82;;;;;;;3.58;100.00;100852.09;10151683;28;20049;-70
2022/01/31 17:18:35;;;;;;;29.02;8.95;;;;;;;3.63;100.00;100872.09;10136851;28;20082;-73
2022/01/31 17:23:32;;;;;;;23.65;9.25;;;;;;;3.56;100.00;100883.19;10148405;28;20671;-73
2022/01/31 17:28:30;;;;;;;26.98;10.73;;;;;;;3.56;100.00;100894.81;10153735;28;20080;-74
2022/01/31 17:33:26;;;;;;;24.88;9.27;;;;;;;3.40;100.00;100906.66;10142378;28;20401;-74
2022/01/31 17:38:23;;;;;;;31.83;10.15;;;;;;;3.39;100.00;100913.16;10143687;28;20643;-73
2022/01/31 17:43:22;;;;;;;20.65;8.43;;;;;;;3.24;100.00;100923.88;10145846;28;20465;-73
2022/01/31 17:48:19;;;;;;;30.67;10.93;;;;;;;3.37;100.00;100942.31;10133168;28;20046;-74
2022/01/31 17:53:15;;;;;;;30.15;9.43;;;;;;;3.29;100.00;100959.03;10137055;28;20049;-74
2022/01/31 17:58:12;;;;;;;31.98;10.82;;;;;;;3.30;100.00;100982.28;10142986;28;20374;-74
2022/01/31 18:03:08;;;;;;;30.42;11.05;;;;;;;3.20;100.00;100998.44;10146111;28;20258;-74
2022/01/31 18:08:05;;;;;;;30.05;11.82;;;;;;;3.21;100.00;100989.28;10140281;28;20050;-74
2022/01/31 18:13:02;;;;;;;32.20;12.68;;;;;;;3.13;100.00;101001.38;10142334;28;20043;-73
2022/01/31 18:18:04;;;;;;;31.63;12.05;;;;;;;3.07;100.00;100995.13;10140674;28;20407;-73
2022/01/31 18:23:00;;;;;;;30.90;11.63;;;;;;;3.13;100.00;101020.28;10143174;28;20125;-73
2022/01/31 18:27:58;;;;;;;30.83;12.55;;;;;;;3.15;100.00;101035.16;10142699;28;20053;-74
2022/01/31 18:32:57;;;;;;;31.33;11.98;;;;;;;3.16;100.00;101042.19;10140856;28;20154;-74
2022/01/31 18:37:54;;;;;;;35.58;12.82;;;;;;;3.25;100.00;101039.00;10142329;28;20086;-74
2022/01/31 18:42:51;;;;;;;33.58;11.77;;;;;;;3.23;100.00;101041.16;10141674;28;20057;-73
2022/01/31 18:47:52;;;;;;;35.53;12.73;;;;;;;3.29;100.00;101053.63;10132087;28;20055;-74
2022/01/31 18:52:58;;;;;;;31.30;12.52;;;;;;;3.31;100.00;101043.38;10142551;28;20133;-73
2022/01/31 18:57:54;;;;;;;31.73;12.82;;;;;;;3.26;100.00;101059.56;10145641;28;20708;-73
2022/01/31 19:02:53;;;;;;;32.78;11.82;;;;;;;3.31;100.00;101081.19;10158069;28;20062;-73
2022/01/31 19:07:51;;;;;;;35.95;14.43;;;;;;;3.24;100.00;101086.03;10159691;28;20048;-73
2022/01/31 19:12:55;;;;;;;32.65;12.88;;;;;;;3.29;100.00;101088.75;10158706;28;20061;-74
2022/01/31 19:17:51;;;;;;;35.13;12.05;;;;;;;3.22;100.00;101120.59;10168642;28;20096;-73
2022/01/31 19:22:51;;;;;;;32.63;11.88;;;;;;;3.26;100.00;101132.53;10159666;28;20039;-73
2022/01/31 19:27:47;;;;;;;33.92;12.95;;;;;;;3.33;100.00;101152.03;10164782;28;20580;-73
2022/01/31 19:32:44;;;;;;;34.17;12.38;;;;;;;3.23;100.00;101143.84;10160547;28;20112;-74
2022/01/31 19:37:40;;;;;;;30.23;12.18;;;;;;;3.25;100.00;101157.91;10159147;28;20101;-73
2022/01/31 19:47:52;;;;;;;40.40;15.02;;;;;;;3.26;100.00;101189.28;10156298;28;20046;-73
2022/01/31 19:52:48;;;;;;;30.95;13.63;;;;;;;3.36;100.00;101194.75;10153602;28;20244;-74
2022/01/31 19:57:47;;;;;;;39.70;15.02;;;;;;;3.33;100.00;101208.78;10152608;28;20055;-73
2022/01/31 20:02:49;;;;;;;34.50;14.70;;;;;;;3.31;100.00;101211.75;10153579;28;20459;-73
2022/01/31 20:07:46;;;;;;;38.45;15.55;;;;;;;3.28;100.00;101216.88;10145253;28;20056;-74
2022/01/31 20:12:43;;;;;;;33.13;13.98;;;;;;;2.94;100.00;101217.06;10146232;28;20455;-70
2022/01/31 20:17:39;;;;;;;33.58;14.65;;;;;;;3.02;100.00;101208.53;10155534;28;20073;-69
2022/01/31 20:22:36;;;;;;;38.22;17.30;;;;;;;3.03;100.00;101206.63;10145084;28;20090;-70
2022/01/31 20:27:32;;;;;;;33.58;14.80;;;;;;;2.91;100.00;101207.59;10144089;28;20141;-70
2022/01/31 20:32:29;;;;;;;37.90;16.52;;;;;;;2.90;100.00;101205.13;10147949;28;20504;-69
2022/01/31 20:37:33;;;;;;;36.22;15.98;;;;;;;2.76;100.00;101204.72;10149775;28;20092;-68
2022/01/31 20:42:32;;;;;;;42.47;19.27;;;;;;;2.78;100.00;101207.16;10145602;28;20089;-69
2022/01/31 20:47:29;;;;;;;36.83;17.25;;;;;;;2.61;100.00;101224.28;10141088;28;20042;-69
2022/01/31 20:52:26;;;;;;;38.22;17.15;;;;;;;2.60;100.00;101217.25;10143536;28;21727;-69
2022/01/31 20:57:23;;;;;;;42.05;19.67;;;;;;;2.60;100.00;101221.81;10144917;28;20085;-68
2022/01/31 21:02:19;;;;;;;29.73;14.65;;;;;;;2.57;100.00;101243.94;10153746;28;20082;-69
2022/01/31 21:07:16;;;;;;;35.40;16.38;;;;;;;2.60;100.00;101233.44;10170900;28;20042;-69
2022/01/31 21:12:13;;;;;;;29.90;15.50;;;;;;;2.55;100.00;101241.47;10135452;28;20070;-69
2022/01/31 21:17:11;;;;;;;29.02;14.88;;;;;;;2.52;100.00;101225.78;10144016;28;20130;-69
2022/01/31 21:22:07;;;;;;;33.35;13.93;;;;;;;2.45;100.00;101230.56;10142309;28;20049;-69
2022/01/31 21:27:04;;;;;;;37.03;15.02;;;;;;;2.40;100.00;101228.59;10153155;28;20093;-69
2022/01/31 21:32:01;;;;;;;28.40;13.75;;;;;;;2.40;100.00;101227.78;10155423;28;20073;-70
2022/01/31 21:36:57;;;;;;;38.13;16.73;;;;;;;2.44;100.00;101218.13;10170430;28;20495;-70
2022/01/31 21:41:54;;;;;;;32.60;15.32;;;;;;;2.46;100.00;101210.59;10156449;28;20092;-71
2022/01/31 21:46:55;;;;;;;33.45;16.23;;;;;;;2.45;100.00;101211.66;10163210;28;20050;-71
2022/01/31 21:51:55;;;;;;;33.38;14.82;;;;;;;2.40;100.00;101227.78;10158640;28;20094;-72
2022/01/31 21:56:51;;;;;;;35.20;14.60;;;;;;;2.36;100.00;101237.44;10164490;28;20118;-69
2022/01/31 22:01:48;;;;;;;40.78;16.60;;;;;;;2.40;100.00;101244.00;10158142;28;20081;-69
2022/01/31 22:06:45;;;;;;;34.75;16.45;;;;;;;2.31;100.00;101241.72;10165361;28;20042;-69
2022/01/31 22:11:42;;;;;;;35.28;15.60;;;;;;;2.31;100.00;101247.09;10142181;28;20125;-70
2022/01/31 22:16:39;;;;;;;33.80;15.93;;;;;;;2.27;100.00;101235.16;10154266;28;20046;-69
2022/01/31 22:21:36;;;;;;;37.58;16.30;;;;;;;2.18;100.00;101228.59;10141203;28;20424;-71
2022/01/31 22:26:33;;;;;;;36.22;15.57;;;;;;;2.17;100.00;101228.84;10147373;28;20650;-71
2022/01/31 22:31:32;;;;;;;37.08;15.80;;;;;;;2.21;100.00;101225.41;10142510;28;20507;-71
2022/01/31 22:36:30;;;;;;;37.30;15.57;;;;;;;2.13;100.00;101233.91;10149314;28;20051;-70
2022/01/31 22:41:28;;;;;;;26.30;12.68;;;;;;;2.20;100.00;101234.53;10155305;28;20051;-70
2022/01/31 22:46:24;;;;;;;35.60;14.50;;;;;;;2.11;100.00;101230.63;10144777;28;20133;-70
2022/01/31 22:51:21;;;;;;;27.40;13.23;;;;;;;2.10;100.00;101219.03;10150776;28;20053;-70
2022/01/31 22:56:18;;;;;;;28.08;10.68;;;;;;;2.05;100.00;101218.97;10156278;28;20046;-70
2022/01/31 23:01:15;;;;;;;25.85;11.55;;;;;;;2.07;100.00;101224.94;10149212;28;20133;-70
2022/01/31 23:06:12;;;;;;;26.65;11.50;;;;;;;1.96;100.00;101216.94;10160948;28;20042;-71
2022/01/31 23:11:12;;;;;;;26.70;11.10;;;;;;;2.11;100.00;101217.16;10157238;28;20128;-68
2022/01/31 23:16:22;;;;;;;19.92;10.05;;;;;;;2.15;100.00;101215.59;10140903;28;20130;-71
2022/01/31 23:42:23;;;;;;;24.48;9.73;;;;;;;2.34;100.00;101251.19;10190257;28;20058;-69
